createdAt,value
2023-06-23T00:03:34.185Z,17.78
2023-06-23T00:09:03.046Z,17.67
2023-06-23T00:14:29.050Z,17.62
2023-06-23T00:19:54.756Z,17.57
2023-06-23T00:25:20.611Z,17.52
2023-06-23T00:30:46.478Z,17.45
2023-06-23T00:36:12.360Z,17.44
2023-06-23T00:41:38.044Z,17.40
2023-06-23T00:47:04.610Z,17.39
2023-06-23T00:52:32.352Z,17.40
2023-06-23T00:57:58.184Z,17.45
2023-06-23T01:03:24.056Z,17.48
2023-06-23T01:08:55.604Z,17.41
2023-06-23T01:14:28.231Z,17.35
2023-06-23T01:20:12.925Z,17.30
2023-06-23T01:25:57.295Z,17.29
2023-06-23T01:31:26.124Z,17.29
2023-06-23T01:36:59.282Z,17.34
2023-06-23T01:42:34.330Z,17.35
2023-06-23T01:48:04.534Z,17.30
2023-06-23T01:53:31.239Z,17.30
2023-06-23T01:59:00.099Z,17.27
2023-06-23T02:04:28.870Z,17.25
2023-06-23T02:09:57.120Z,17.22
2023-06-23T02:15:24.809Z,17.16
2023-06-23T02:20:51.900Z,17.13
2023-06-23T02:26:18.138Z,17.14
2023-06-23T02:31:45.990Z,17.14
2023-06-23T02:37:16.329Z,17.10
2023-06-23T02:42:44.576Z,17.08
2023-06-23T02:48:14.724Z,17.06
2023-06-23T02:53:45.596Z,17.02
2023-06-23T02:59:17.256Z,16.98
2023-06-23T03:04:43.026Z,16.95
2023-06-23T03:10:09.118Z,16.90
2023-06-23T03:15:36.066Z,16.88
2023-06-23T03:21:09.274Z,16.87
2023-06-23T03:26:35.913Z,16.88
2023-06-23T03:32:10.278Z,16.87
2023-06-23T03:37:42.778Z,16.91
2023-06-23T03:43:11.797Z,16.94
2023-06-23T03:48:41.136Z,16.96
2023-06-23T03:54:09.311Z,17.00
2023-06-23T03:59:37.213Z,17.04
2023-06-23T04:05:05.027Z,17.08
2023-06-23T04:10:32.683Z,17.13
2023-06-23T04:16:00.515Z,17.17
2023-06-23T04:21:30.480Z,17.18
2023-06-23T04:26:57.504Z,17.20
2023-06-23T04:32:23.401Z,17.20
2023-06-23T04:37:57.608Z,17.23
2023-06-23T04:43:31.492Z,17.29
2023-06-23T04:49:01.725Z,17.30
2023-06-23T04:54:35.388Z,17.29
2023-06-23T05:00:06.057Z,17.25
2023-06-23T05:05:34.943Z,17.22
2023-06-23T05:11:02.831Z,17.22
2023-06-23T05:16:33.079Z,17.19
2023-06-23T05:22:00.760Z,17.14
2023-06-23T05:27:28.784Z,17.14
2023-06-23T05:32:55.968Z,17.15
2023-06-23T05:38:25.641Z,17.16
2023-06-23T05:43:51.848Z,17.19
2023-06-23T05:49:25.374Z,17.21
2023-06-23T05:54:55.884Z,17.18
2023-06-23T06:00:28.312Z,17.19
2023-06-23T06:05:56.684Z,17.23
2023-06-23T06:11:29.839Z,17.24
2023-06-23T06:16:57.589Z,17.23
2023-06-23T06:22:24.793Z,17.24
2023-06-23T06:27:54.997Z,17.25
2023-06-23T06:33:25.355Z,17.25
2023-06-23T06:38:54.296Z,17.27
2023-06-23T06:44:20.133Z,17.30
2023-06-23T06:49:48.959Z,17.36
2023-06-23T06:55:05.398Z,17.40
2023-06-23T07:00:32.933Z,17.50
2023-06-23T07:11:37.480Z,17.58
2023-06-23T07:16:55.746Z,17.60
2023-06-23T07:22:22.072Z,17.61
2023-06-23T07:27:48.006Z,17.64
2023-06-23T07:33:13.960Z,17.68
2023-06-23T07:38:39.761Z,17.71
2023-06-23T07:44:05.653Z,17.71
2023-06-23T07:49:31.373Z,17.67
2023-06-23T07:54:57.895Z,17.63
2023-06-23T08:00:24.279Z,17.63
2023-06-23T08:05:50.031Z,17.65
2023-06-23T08:11:15.936Z,17.63
2023-06-23T08:16:41.737Z,17.59
2023-06-23T08:22:08.978Z,17.54
2023-06-23T08:27:27.350Z,17.53
2023-06-23T08:32:53.214Z,17.56
2023-06-23T08:38:18.975Z,17.59
2023-06-23T08:43:45.381Z,17.66
2023-06-23T08:49:14.621Z,17.68
2023-06-23T08:54:40.594Z,17.68
2023-06-23T09:00:06.353Z,17.68
2023-06-23T09:05:25.247Z,17.65
2023-06-23T09:10:52.082Z,17.61
2023-06-23T09:16:17.800Z,17.56
2023-06-23T09:21:45.493Z,17.50
2023-06-23T09:27:14.158Z,17.45
2023-06-23T09:32:50.463Z,17.43
2023-06-23T09:38:12.740Z,17.42
2023-06-23T09:43:42.465Z,17.39
2023-06-23T09:49:11.654Z,17.41
2023-06-23T09:54:44.858Z,17.38
2023-06-23T10:00:13.943Z,17.40
2023-06-23T10:05:39.947Z,17.43
2023-06-23T10:11:07.031Z,17.48
2023-06-23T10:16:33.272Z,17.49
2023-06-23T10:22:00.715Z,17.48
2023-06-23T10:27:42.871Z,17.47
2023-06-23T10:33:12.157Z,17.49
2023-06-23T10:38:43.148Z,17.57
2023-06-23T10:44:13.873Z,17.66
2023-06-23T10:49:40.549Z,17.71
2023-06-23T10:55:05.939Z,17.72
2023-06-23T11:00:34.015Z,17.70
2023-06-23T11:06:13.167Z,17.66
2023-06-23T11:11:51.674Z,17.66
2023-06-23T11:17:20.940Z,17.67
2023-06-23T11:22:51.724Z,17.66
2023-06-23T11:28:57.218Z,17.67
2023-06-23T11:34:24.664Z,17.72
2023-06-23T11:39:51.164Z,17.71
2023-06-23T11:45:18.590Z,17.69
2023-06-23T11:50:45.314Z,17.70
2023-06-23T11:56:12.851Z,17.71
2023-06-23T12:01:38.952Z,17.75
2023-06-23T12:07:05.128Z,17.73
2023-06-23T12:12:31.715Z,17.64
2023-06-23T12:18:03.314Z,17.54
2023-06-23T12:23:30.379Z,17.43
2023-06-23T12:28:56.659Z,17.32
2023-06-23T12:34:24.224Z,17.23
2023-06-23T12:39:51.318Z,17.15
2023-06-23T12:45:18.070Z,17.02
2023-06-23T12:50:52.481Z,16.97
2023-06-23T12:56:18.186Z,16.97
2023-06-23T13:01:44.284Z,16.94
2023-06-23T13:07:10.130Z,16.94
2023-06-23T13:12:35.982Z,16.94
2023-06-23T13:18:01.731Z,16.99
2023-06-23T13:23:27.577Z,17.04
2023-06-23T13:28:53.363Z,17.12
2023-06-23T13:34:19.147Z,17.20
2023-06-23T13:39:44.874Z,17.22
2023-06-23T13:45:10.630Z,17.16
2023-06-23T13:50:36.409Z,17.05
2023-06-23T13:56:02.276Z,16.85
2023-06-23T14:01:28.320Z,16.58
2023-06-23T14:06:54.218Z,16.28
2023-06-23T14:12:20.161Z,16.15
2023-06-23T14:23:23.167Z,16.06
2023-06-23T14:28:50.438Z,16.24
2023-06-23T14:34:16.111Z,16.51
2023-06-23T14:39:42.068Z,16.69
2023-06-23T14:45:07.886Z,16.91
2023-06-23T14:50:34.114Z,17.15
2023-06-23T14:55:58.395Z,17.22
2023-06-23T15:01:24.255Z,17.18
2023-06-23T15:06:50.155Z,17.12
2023-06-23T15:12:15.941Z,17.10
2023-06-23T15:17:41.667Z,17.15
2023-06-23T15:23:07.377Z,17.23
2023-06-23T15:28:48.706Z,17.32
2023-06-23T15:34:14.462Z,17.40
2023-06-23T15:39:40.559Z,17.44
2023-06-23T15:45:08.903Z,17.45
2023-06-23T15:50:32.328Z,17.45
2023-06-23T15:55:58.329Z,17.44
2023-06-23T16:01:24.035Z,17.43
2023-06-23T16:06:50.061Z,17.41
2023-06-23T16:12:16.628Z,17.43
2023-06-23T16:17:42.838Z,17.41
2023-06-23T16:23:12.060Z,17.42
2023-06-23T16:28:36.473Z,17.40
2023-06-23T16:34:02.491Z,17.40
2023-06-23T16:39:28.292Z,17.40
2023-06-23T16:44:54.127Z,17.41
2023-06-23T16:50:19.986Z,17.40
2023-06-23T16:55:47.032Z,17.40
2023-06-23T17:01:13.108Z,17.41
2023-06-23T17:06:39.012Z,17.43
2023-06-23T17:17:33.664Z,17.48
2023-06-23T17:22:59.713Z,17.49
2023-06-23T17:28:25.804Z,17.49
2023-06-23T17:33:50.377Z,17.51
2023-06-23T17:39:16.198Z,17.55
2023-06-23T17:44:42.030Z,17.59
2023-06-23T17:49:58.062Z,17.59
2023-06-23T17:55:25.543Z,17.60
2023-06-23T18:00:51.613Z,17.62
2023-06-23T18:06:10.057Z,17.64
2023-06-23T18:11:35.865Z,17.64
2023-06-23T18:17:01.916Z,17.63
2023-06-23T18:22:27.855Z,17.63
2023-06-23T18:27:53.787Z,17.60
2023-06-23T18:33:19.636Z,17.60
2023-06-23T18:38:45.448Z,17.60
2023-06-23T18:44:11.911Z,17.57
2023-06-23T18:49:37.798Z,17.55
2023-06-23T18:55:03.852Z,17.51
2023-06-23T19:00:33.373Z,17.48
2023-06-23T19:05:59.801Z,17.43
2023-06-23T19:11:25.819Z,17.40
2023-06-23T19:16:51.883Z,17.36
2023-06-23T19:22:10.656Z,17.31
2023-06-23T19:27:36.572Z,17.27
2023-06-23T19:33:02.446Z,17.20
2023-06-23T19:38:28.429Z,17.15
2023-06-23T19:43:54.278Z,17.09
2023-06-23T19:49:19.974Z,17.05
2023-06-23T19:54:45.769Z,17.01
2023-06-23T20:00:11.521Z,16.98
2023-06-23T20:05:37.470Z,16.95
2023-06-23T20:11:03.254Z,16.94
2023-06-23T20:16:29.118Z,16.92
2023-06-23T20:21:55.072Z,16.89
2023-06-23T20:27:20.902Z,16.84
2023-06-23T20:32:47.102Z,16.82
2023-06-23T20:38:12.974Z,16.81
2023-06-23T20:43:38.915Z,16.82
2023-06-23T20:49:04.759Z,16.80
2023-06-23T20:54:30.791Z,16.78
2023-06-23T20:59:56.650Z,16.74
2023-06-23T21:05:19.299Z,16.71
2023-06-23T21:10:47.000Z,16.69
2023-06-23T21:16:12.916Z,16.65
2023-06-23T21:21:38.769Z,16.64
2023-06-23T21:26:59.289Z,16.63
2023-06-23T21:32:25.783Z,16.61
2023-06-23T21:37:51.577Z,16.58
2023-06-23T21:43:17.400Z,16.55
2023-06-23T21:48:42.935Z,16.53
2023-06-23T21:54:08.627Z,16.50
2023-06-23T21:59:36.329Z,16.45
2023-06-23T22:05:02.079Z,16.40
2023-06-23T22:10:30.719Z,16.35
2023-06-23T22:15:56.454Z,16.30
2023-06-23T22:21:22.454Z,16.26
2023-06-23T22:26:48.307Z,16.20
2023-06-23T22:32:14.143Z,16.13
2023-06-23T22:37:40.045Z,16.09
2023-06-23T22:43:06.001Z,16.04
2023-06-23T22:48:31.880Z,16.01
2023-06-23T22:53:47.284Z,16.01
2023-06-23T22:59:13.069Z,16.01
2023-06-23T23:04:39.115Z,16.02
2023-06-23T23:10:04.845Z,16.03
2023-06-23T23:15:32.679Z,16.04
2023-06-23T23:20:58.477Z,16.05
2023-06-23T23:26:24.302Z,16.06
2023-06-23T23:31:50.086Z,16.07
2023-06-23T23:37:15.986Z,16.09
2023-06-23T23:42:41.835Z,16.11
2023-06-23T23:48:07.916Z,16.13
2023-06-23T23:53:33.715Z,16.15
2023-06-23T23:58:59.553Z,16.12
